createdAt,value
2023-05-22T00:00:56.943Z,39.11
2023-05-22T00:01:56.116Z,36.52
2023-05-22T00:02:55.985Z,34.73
2023-05-22T00:03:56.156Z,37.40
2023-05-22T00:04:56.112Z,39.51
2023-05-22T00:05:55.865Z,35.22
2023-05-22T00:06:56.847Z,36.00
2023-05-22T00:07:55.983Z,39.54
2023-05-22T00:08:57.010Z,34.32
2023-05-22T00:09:56.953Z,35.94
2023-05-22T00:10:56.888Z,35.60
2023-05-22T00:11:55.943Z,34.80
2023-05-22T00:12:56.800Z,36.34
2023-05-22T00:13:55.812Z,35.95
2023-05-22T00:14:57.058Z,38.45
2023-05-22T00:15:56.792Z,32.93
2023-05-22T00:16:56.844Z,39.28
2023-05-22T00:17:56.048Z,34.79
2023-05-22T00:18:55.911Z,35.34
2023-05-22T00:19:55.789Z,34.65
2023-05-22T00:20:56.822Z,37.47
2023-05-22T00:21:55.796Z,37.20
2023-05-22T00:22:55.736Z,37.82
2023-05-22T00:23:57.020Z,36.80
2023-05-22T00:24:56.923Z,35.05
2023-05-22T00:25:56.742Z,35.70
2023-05-22T00:26:55.789Z,36.46
2023-05-22T00:27:55.875Z,33.51
2023-05-22T00:28:56.996Z,33.70
2023-05-22T00:29:56.769Z,37.43
2023-05-22T00:30:55.742Z,37.63
2023-05-22T00:31:55.760Z,35.91
2023-05-22T00:32:55.830Z,35.03
2023-05-22T00:33:57.019Z,33.54
2023-05-22T00:34:55.752Z,32.90
2023-05-22T00:35:55.792Z,38.06
2023-05-22T00:36:56.780Z,36.86
2023-05-22T00:37:57.012Z,33.74
2023-05-22T00:38:56.820Z,33.33
2023-05-22T00:39:55.924Z,36.18
2023-05-22T00:40:55.828Z,36.39
2023-05-22T00:41:57.074Z,36.60
2023-05-22T00:42:57.114Z,38.76
2023-05-22T00:43:57.216Z,35.90
2023-05-22T00:44:56.958Z,36.23
2023-05-22T00:45:56.920Z,35.34
2023-05-22T00:46:57.110Z,40.64
2023-05-22T00:47:56.984Z,33.20
2023-05-22T00:48:56.334Z,36.90
2023-05-22T00:49:55.951Z,35.70
2023-05-22T00:50:56.986Z,34.35
2023-05-22T00:51:56.132Z,35.15
2023-05-22T00:52:56.103Z,38.19
2023-05-22T00:53:57.029Z,35.60
2023-05-22T00:54:57.053Z,36.61
2023-05-22T00:55:57.156Z,38.28
2023-05-22T00:56:57.345Z,37.93
2023-05-22T00:57:56.284Z,37.71
2023-05-22T00:58:56.323Z,39.04
2023-05-22T00:59:57.196Z,37.09
2023-05-22T01:00:57.140Z,32.93
2023-05-22T01:01:57.347Z,38.36
2023-05-22T01:02:56.381Z,36.70
2023-05-22T01:03:56.296Z,37.14
2023-05-22T01:04:57.187Z,37.96
2023-05-22T01:05:56.188Z,38.14
2023-05-22T01:06:56.200Z,36.13
2023-05-22T01:07:57.258Z,34.04
2023-05-22T01:08:56.212Z,36.01
2023-05-22T01:09:56.286Z,34.22
2023-05-22T01:10:56.251Z,36.19
2023-05-22T01:11:57.283Z,36.19
2023-05-22T01:12:56.340Z,33.87
2023-05-22T01:13:57.577Z,34.52
2023-05-22T01:14:57.563Z,35.34
2023-05-22T01:15:57.493Z,35.16
2023-05-22T01:16:56.324Z,34.52
2023-05-22T01:17:56.420Z,35.62
2023-05-22T01:18:56.663Z,36.46
2023-05-22T01:19:57.718Z,35.52
2023-05-22T01:20:56.653Z,35.18
2023-05-22T01:21:56.625Z,36.17
2023-05-22T01:22:57.726Z,36.35
2023-05-22T01:23:57.712Z,37.75
2023-05-22T01:24:57.508Z,38.51
2023-05-22T01:25:56.613Z,35.87
2023-05-22T01:26:56.493Z,36.29
2023-05-22T01:27:57.634Z,37.02
2023-05-22T01:28:56.757Z,38.20
2023-05-22T01:29:57.542Z,36.24
2023-05-22T01:30:57.561Z,37.91
2023-05-22T01:31:56.826Z,32.39
2023-05-22T01:32:56.914Z,34.91
2023-05-22T01:33:57.918Z,38.44
2023-05-22T01:34:56.733Z,35.53
2023-05-22T01:35:56.751Z,37.48
2023-05-22T01:36:56.736Z,36.32
2023-05-22T01:37:57.670Z,36.08
2023-05-22T01:38:56.735Z,35.51
2023-05-22T01:39:57.906Z,36.58
2023-05-22T01:40:56.908Z,37.78
2023-05-22T01:41:57.822Z,36.00
2023-05-22T01:42:56.867Z,37.57
2023-05-22T01:43:57.884Z,34.87
2023-05-22T01:44:57.843Z,37.58
2023-05-22T01:45:57.925Z,38.58
2023-05-22T01:46:57.764Z,38.11
2023-05-22T01:47:57.981Z,37.28
2023-05-22T01:48:57.957Z,36.16
2023-05-22T01:49:58.047Z,33.71
2023-05-22T01:50:58.074Z,36.55
2023-05-22T01:51:56.843Z,34.18
2023-05-22T01:52:58.058Z,34.88
2023-05-22T01:53:57.125Z,34.72
2023-05-22T01:54:58.113Z,31.94
2023-05-22T01:55:57.026Z,34.22
2023-05-22T01:56:56.914Z,36.85
2023-05-22T01:57:58.188Z,31.74
2023-05-22T01:58:57.942Z,36.31
2023-05-22T01:59:58.155Z,36.83
2023-05-22T02:00:58.023Z,35.88
2023-05-22T02:01:56.988Z,35.09
2023-05-22T02:02:57.047Z,35.50
2023-05-22T02:03:57.007Z,35.08
2023-05-22T02:04:57.029Z,31.39
2023-05-22T02:05:58.043Z,33.26
2023-05-22T02:06:58.042Z,34.03
2023-05-22T02:07:58.050Z,35.14
2023-05-22T02:08:58.101Z,38.58
2023-05-22T02:09:57.098Z,33.41
2023-05-22T02:10:57.097Z,36.01
2023-05-22T02:11:58.114Z,33.17
2023-05-22T02:12:58.141Z,34.01
2023-05-22T02:13:57.146Z,36.27
2023-05-22T02:14:57.168Z,37.25
2023-05-22T02:15:58.230Z,38.50
2023-05-22T02:16:57.191Z,35.33
2023-05-22T02:17:57.238Z,34.48
2023-05-22T02:18:58.234Z,35.89
2023-05-22T02:19:58.246Z,36.86
2023-05-22T02:20:57.250Z,36.22
2023-05-22T02:21:57.257Z,36.35
2023-05-22T02:22:58.289Z,36.92
2023-05-22T02:23:58.281Z,32.63
2023-05-22T02:24:58.441Z,32.53
2023-05-22T02:25:57.324Z,36.06
2023-05-22T02:26:57.314Z,36.36
2023-05-22T02:27:58.346Z,32.33
2023-05-22T02:28:58.371Z,36.15
2023-05-22T02:29:58.367Z,33.91
2023-05-22T02:30:57.403Z,36.38
2023-05-22T02:31:58.389Z,37.30
2023-05-22T02:32:57.568Z,34.94
2023-05-22T02:33:58.458Z,35.37
2023-05-22T02:34:57.435Z,36.78
2023-05-22T02:35:57.475Z,36.53
2023-05-22T02:36:58.471Z,35.95
2023-05-22T02:37:58.480Z,36.54
2023-05-22T02:38:57.539Z,35.82
2023-05-22T02:39:58.545Z,34.78
2023-05-22T02:40:57.546Z,36.61
2023-05-22T02:41:58.529Z,35.68
2023-05-22T02:42:57.558Z,35.64
2023-05-22T02:43:57.586Z,36.37
2023-05-22T02:44:57.588Z,35.39
2023-05-22T02:45:58.602Z,32.32
2023-05-22T02:46:57.639Z,34.57
2023-05-22T02:47:58.677Z,34.23
2023-05-22T02:48:57.667Z,34.78
2023-05-22T02:49:57.683Z,36.02
2023-05-22T02:50:57.715Z,35.30
2023-05-22T02:51:57.727Z,36.07
2023-05-22T02:52:58.755Z,34.70
2023-05-22T02:53:57.772Z,37.34
2023-05-22T02:54:58.823Z,36.25
2023-05-22T02:55:58.871Z,35.27
2023-05-22T02:56:58.968Z,34.97
2023-05-22T02:57:58.857Z,35.13
2023-05-22T02:58:58.889Z,34.14
2023-05-22T02:59:58.933Z,34.57
2023-05-22T03:00:57.926Z,33.24
2023-05-22T03:01:59.000Z,35.45
2023-05-22T03:02:58.045Z,34.60
2023-05-22T03:03:59.141Z,36.94
2023-05-22T03:04:59.229Z,35.33
2023-05-22T03:05:59.058Z,33.90
2023-05-22T03:06:58.062Z,35.82
2023-05-22T03:07:58.097Z,35.72
2023-05-22T03:08:59.137Z,34.30
2023-05-22T03:09:59.161Z,33.22
2023-05-22T03:10:59.153Z,33.32
2023-05-22T03:11:59.177Z,33.04
2023-05-22T03:12:59.282Z,33.53
2023-05-22T03:13:59.235Z,33.34
2023-05-22T03:14:59.282Z,34.25
2023-05-22T03:15:59.319Z,33.83
2023-05-22T03:16:59.301Z,35.08
2023-05-22T03:17:58.346Z,33.79
2023-05-22T03:18:59.414Z,33.07
2023-05-22T03:19:59.416Z,34.35
2023-05-22T03:20:58.421Z,34.17
2023-05-22T03:21:58.447Z,34.59
2023-05-22T03:22:59.464Z,34.05
2023-05-22T03:23:59.508Z,33.26
2023-05-22T03:24:59.557Z,33.11
2023-05-22T03:25:59.549Z,33.64
2023-05-22T03:26:59.578Z,33.19
2023-05-22T03:27:59.600Z,33.06
2023-05-22T03:28:58.876Z,32.20
2023-05-22T03:29:58.675Z,32.40
2023-05-22T03:30:59.688Z,33.84
2023-05-22T03:31:58.720Z,33.17
2023-05-22T03:32:59.782Z,32.75
2023-05-22T03:33:58.844Z,32.11
2023-05-22T03:34:58.810Z,33.82
2023-05-22T03:35:58.832Z,31.98
2023-05-22T03:36:59.903Z,32.80
2023-05-22T03:37:58.898Z,33.68
2023-05-22T03:38:59.927Z,33.98
2023-05-22T03:39:59.955Z,33.27
2023-05-22T03:40:59.996Z,34.10
2023-05-22T03:42:00.041Z,34.25
2023-05-22T03:42:59.047Z,35.15
2023-05-22T03:44:00.053Z,34.84
2023-05-22T03:45:00.162Z,34.32
2023-05-22T03:45:59.198Z,34.08
2023-05-22T03:47:00.124Z,33.80
2023-05-22T03:47:59.181Z,35.13
2023-05-22T03:49:00.208Z,33.96
2023-05-22T03:49:59.246Z,35.09
2023-05-22T03:51:00.266Z,34.43
2023-05-22T03:52:00.286Z,34.20
2023-05-22T03:52:59.329Z,33.56
2023-05-22T03:54:00.373Z,35.58
2023-05-22T03:55:00.368Z,35.26
2023-05-22T03:55:59.437Z,35.52
2023-05-22T03:57:00.420Z,33.21
2023-05-22T03:57:59.484Z,34.98
2023-05-22T03:58:59.493Z,35.28
2023-05-22T04:00:00.519Z,34.26
2023-05-22T04:01:00.598Z,35.78
2023-05-22T04:02:00.637Z,34.92
2023-05-22T04:02:59.678Z,37.54
2023-05-22T04:04:00.668Z,36.00
2023-05-22T04:04:59.738Z,36.72
2023-05-22T04:06:00.716Z,35.87
2023-05-22T04:06:59.735Z,36.65
2023-05-22T04:07:59.772Z,35.34
2023-05-22T04:09:00.788Z,36.45
2023-05-22T04:10:00.821Z,34.39
2023-05-22T04:11:00.896Z,35.67
2023-05-22T04:12:00.893Z,36.62
2023-05-22T04:13:00.908Z,36.27
2023-05-22T04:13:59.949Z,35.93
2023-05-22T04:15:01.011Z,35.00
2023-05-22T04:16:01.066Z,37.11
2023-05-22T04:17:00.089Z,35.32
2023-05-22T04:18:01.128Z,35.42
2023-05-22T04:19:00.183Z,38.82
2023-05-22T04:20:01.220Z,36.94
2023-05-22T04:21:01.200Z,37.62
2023-05-22T04:22:00.229Z,36.11
2023-05-22T04:23:00.259Z,35.54
2023-05-22T04:24:01.293Z,35.96
2023-05-22T04:25:00.353Z,36.89
2023-05-22T04:26:00.370Z,36.83
2023-05-22T04:27:00.449Z,37.50
2023-05-22T04:28:01.458Z,36.54
2023-05-22T04:29:00.485Z,37.84
2023-05-22T04:30:00.497Z,38.14
2023-05-22T04:31:01.577Z,38.30
2023-05-22T04:32:01.597Z,37.89
2023-05-22T04:33:01.857Z,37.77
2023-05-22T04:34:00.662Z,36.18
2023-05-22T04:35:01.688Z,37.27
2023-05-22T04:36:01.713Z,38.39
2023-05-22T04:37:00.755Z,38.43
2023-05-22T04:38:01.776Z,38.44
2023-05-22T04:39:01.829Z,39.13
2023-05-22T04:40:00.843Z,36.90
2023-05-22T04:41:01.865Z,35.73
2023-05-22T04:42:01.910Z,37.17
2023-05-22T04:43:00.935Z,37.32
2023-05-22T04:44:01.984Z,37.89
2023-05-22T04:45:01.028Z,37.49
2023-05-22T04:46:01.035Z,37.61
2023-05-22T04:47:02.161Z,39.22
2023-05-22T04:48:01.139Z,37.74
2023-05-22T04:49:02.417Z,37.87
2023-05-22T04:50:01.165Z,38.44
2023-05-22T04:51:01.202Z,38.71
2023-05-22T04:52:02.245Z,38.37
2023-05-22T04:53:02.273Z,36.31
2023-05-22T04:54:02.317Z,38.03
2023-05-22T04:55:02.307Z,36.64
2023-05-22T04:56:01.404Z,38.92
2023-05-22T04:57:01.417Z,36.16
2023-05-22T04:58:01.458Z,25.00
2023-05-22T04:59:02.480Z,25.00
2023-05-22T05:00:02.521Z,26.82
2023-05-22T05:01:02.571Z,25.00
2023-05-22T05:02:02.526Z,25.07
2023-05-22T05:03:02.612Z,25.00
2023-05-22T05:04:01.707Z,29.04
2023-05-22T05:05:01.655Z,28.93
2023-05-22T05:06:03.147Z,30.12
2023-05-22T05:07:02.683Z,33.92
2023-05-22T05:08:02.687Z,31.82
2023-05-22T05:09:02.734Z,30.64
2023-05-22T05:10:01.735Z,25.00
2023-05-22T05:11:02.759Z,25.64
2023-05-22T05:12:02.776Z,26.14
2023-05-22T05:13:02.814Z,31.84
2023-05-22T05:14:02.830Z,35.62
2023-05-22T05:15:02.898Z,29.79
2023-05-22T05:16:01.944Z,25.03
2023-05-22T05:17:02.980Z,25.00
2023-05-22T05:18:02.007Z,27.38
2023-05-22T05:19:02.991Z,28.56
2023-05-22T05:20:02.964Z,29.45
2023-05-22T05:21:03.008Z,31.32
2023-05-22T05:22:02.979Z,41.55
2023-05-22T05:23:03.005Z,44.54
2023-05-22T05:24:03.031Z,50.39
2023-05-22T05:25:03.067Z,57.60
2023-05-22T05:26:03.108Z,67.09
2023-05-22T05:27:02.067Z,73.97
2023-05-22T05:28:03.098Z,72.41
2023-05-22T05:29:02.150Z,77.46
2023-05-22T05:30:03.184Z,77.70
2023-05-22T05:31:03.220Z,74.00
2023-05-22T05:32:03.251Z,78.35
2023-05-22T05:33:03.291Z,75.24
2023-05-22T05:34:03.293Z,79.82
2023-05-22T05:35:03.298Z,101.80
2023-05-22T05:36:02.343Z,110.79
2023-05-22T05:37:02.417Z,113.05
2023-05-22T05:38:02.457Z,293.70
2023-05-22T05:39:02.482Z,229.60
2023-05-22T05:40:03.529Z,164.06
2023-05-22T05:41:02.564Z,124.09
2023-05-22T05:42:03.589Z,99.63
2023-05-22T05:43:02.575Z,88.37
2023-05-22T05:44:02.602Z,84.11
2023-05-22T05:48:03.693Z,63.05
2023-05-22T05:49:03.722Z,69.22
2023-05-22T05:50:03.735Z,65.40
2023-05-22T05:51:03.770Z,43.09
2023-05-22T05:52:02.765Z,46.64
2023-05-22T05:53:03.818Z,63.63
2023-05-22T05:54:02.832Z,77.81
2023-05-22T05:55:03.863Z,89.27
2023-05-22T05:56:03.923Z,97.25
2023-05-22T05:57:02.950Z,105.89
2023-05-22T05:58:03.924Z,108.97
2023-05-22T05:59:02.953Z,111.70
2023-05-22T06:00:03.001Z,114.98
2023-05-22T06:01:03.027Z,108.85
2023-05-22T06:02:04.255Z,117.67
2023-05-22T06:03:04.210Z,32.18
2023-05-22T06:04:04.195Z,23.22
2023-05-22T06:05:03.205Z,31.58
2023-05-22T06:06:03.466Z,34.72
2023-05-22T06:07:04.187Z,25.13
2023-05-22T06:08:04.206Z,27.58
2023-05-22T06:09:04.252Z,31.93
2023-05-22T06:10:03.242Z,36.96
2023-05-22T06:11:04.247Z,40.21
2023-05-22T06:12:04.308Z,44.31
2023-05-22T06:13:04.288Z,37.82
2023-05-22T06:14:04.305Z,25.22
2023-05-22T06:15:04.329Z,31.99
2023-05-22T06:16:06.549Z,42.39
2023-05-22T06:17:04.373Z,54.02
2023-05-22T06:18:04.419Z,60.72
2023-05-22T06:19:04.357Z,61.84
2023-05-22T06:20:04.335Z,65.36
2023-05-22T06:21:04.492Z,73.83
2023-05-22T06:22:03.325Z,79.75
2023-05-22T06:23:04.328Z,85.51
2023-05-22T06:24:03.309Z,85.43
2023-05-22T06:25:04.389Z,97.45
2023-05-22T06:26:04.302Z,97.22
2023-05-22T06:27:03.303Z,102.82
2023-05-22T06:28:04.290Z,103.52
2023-05-22T06:29:04.214Z,108.80
2023-05-22T06:30:04.764Z,115.39
2023-05-22T06:31:03.269Z,112.19
2023-05-22T06:32:04.309Z,113.33
2023-05-22T06:33:04.334Z,113.12
2023-05-22T06:34:04.460Z,119.67
2023-05-22T06:35:04.283Z,120.63
2023-05-22T06:36:03.221Z,126.36
2023-05-22T06:37:03.224Z,127.56
2023-05-22T06:38:04.214Z,130.16
2023-05-22T06:39:03.227Z,127.92
2023-05-22T06:40:03.204Z,134.17
2023-05-22T06:41:03.281Z,136.99
2023-05-22T06:42:04.189Z,140.69
2023-05-22T06:43:03.187Z,142.99
2023-05-22T06:44:04.161Z,145.28
2023-05-22T06:45:04.166Z,152.09
2023-05-22T06:46:03.248Z,154.40
2023-05-22T06:47:04.143Z,154.96
2023-05-22T06:48:04.189Z,161.41
2023-05-22T06:49:04.224Z,166.88
2023-05-22T06:50:03.243Z,169.58
2023-05-22T06:51:03.283Z,173.74
2023-05-22T06:52:05.289Z,174.91
2023-05-22T06:53:04.353Z,182.94
2023-05-22T06:54:04.419Z,166.78
2023-05-22T06:55:04.461Z,147.04
2023-05-22T06:56:03.453Z,132.60
2023-05-22T06:57:03.725Z,118.34
2023-05-22T06:58:03.484Z,129.25
2023-05-22T06:59:06.048Z,131.82
2023-05-22T07:00:03.489Z,136.05
2023-05-22T07:01:04.518Z,140.52
2023-05-22T07:02:03.483Z,146.19
2023-05-22T07:03:04.495Z,151.32
2023-05-22T07:04:03.471Z,153.24
2023-05-22T07:05:04.472Z,158.29
2023-05-22T07:06:03.515Z,157.96
2023-05-22T07:07:04.451Z,158.41
2023-05-22T07:08:04.466Z,166.20
2023-05-22T07:09:03.450Z,170.35
2023-05-22T07:10:04.445Z,174.48
2023-05-22T07:11:03.437Z,173.58
2023-05-22T07:12:04.413Z,174.64
2023-05-22T07:13:04.437Z,181.99
2023-05-22T07:14:03.413Z,190.06
2023-05-22T07:15:04.402Z,194.47
2023-05-22T07:16:04.404Z,196.52
2023-05-22T07:17:03.433Z,199.64
2023-05-22T07:18:04.485Z,199.05
2023-05-22T07:19:04.405Z,204.38
2023-05-22T07:20:04.377Z,207.37
2023-05-22T07:21:03.360Z,209.90
2023-05-22T07:22:04.365Z,212.36
2023-05-22T07:23:04.357Z,211.08
2023-05-22T07:24:04.337Z,211.98
2023-05-22T07:25:04.346Z,216.11
2023-05-22T07:26:04.324Z,216.34
2023-05-22T07:27:04.314Z,220.42
2023-05-22T07:28:03.322Z,217.30
2023-05-22T07:29:03.404Z,220.84
2023-05-22T07:30:03.342Z,218.67
2023-05-22T07:31:03.295Z,225.94
2023-05-22T07:32:04.358Z,234.17
2023-05-22T07:33:04.319Z,230.26
2023-05-22T07:34:04.270Z,228.77
2023-05-22T07:35:04.270Z,233.99
2023-05-22T07:36:04.269Z,236.85
2023-05-22T07:37:03.251Z,233.72
2023-05-22T07:38:04.253Z,239.29
2023-05-22T07:39:03.239Z,231.12
2023-05-22T07:40:04.245Z,224.40
2023-05-22T07:41:04.246Z,226.73
2023-05-22T07:42:04.288Z,242.90
2023-05-22T07:43:03.327Z,242.70
2023-05-22T07:44:03.390Z,241.59
2023-05-22T07:45:04.574Z,245.93
2023-05-22T07:46:04.514Z,247.63
2023-05-22T07:47:03.548Z,230.69
2023-05-22T07:48:04.626Z,231.12
2023-05-22T07:49:04.615Z,221.23
2023-05-22T07:50:03.663Z,217.79
2023-05-22T07:51:03.740Z,232.87
2023-05-22T07:52:05.216Z,241.16
2023-05-22T07:53:04.780Z,244.16
2023-05-22T07:54:04.808Z,248.83
2023-05-22T07:55:04.866Z,246.29
2023-05-22T07:56:04.894Z,247.04
2023-05-22T07:57:04.955Z,248.45
2023-05-22T07:58:05.000Z,238.61
2023-05-22T07:59:05.043Z,230.69
2023-05-22T08:00:05.073Z,224.39
2023-05-22T08:01:04.376Z,219.49
2023-05-22T08:02:04.198Z,213.03
2023-05-22T08:03:04.444Z,219.11
2023-05-22T08:04:05.413Z,213.30
2023-05-22T08:05:05.537Z,209.96
2023-05-22T08:06:04.372Z,210.00
2023-05-22T08:07:05.720Z,216.06
2023-05-22T08:08:05.454Z,217.45
2023-05-22T08:09:04.479Z,219.71
2023-05-22T08:10:05.534Z,218.45
2023-05-22T08:11:04.948Z,215.70
2023-05-22T08:12:05.612Z,212.08
2023-05-22T08:13:05.612Z,215.68
2023-05-22T08:14:05.806Z,210.01
2023-05-22T08:15:05.572Z,213.83
2023-05-22T08:16:05.567Z,205.03
2023-05-22T08:17:05.754Z,189.65
2023-05-22T08:18:05.232Z,188.12
2023-05-22T08:19:05.694Z,180.87
2023-05-22T08:20:04.672Z,182.52
2023-05-22T08:21:04.546Z,181.71
2023-05-22T08:22:04.534Z,178.43
2023-05-22T08:23:05.525Z,175.15
2023-05-22T08:24:05.540Z,165.30
2023-05-22T08:25:04.518Z,158.98
2023-05-22T08:26:04.526Z,148.79
2023-05-22T08:27:05.542Z,146.10
2023-05-22T08:28:05.524Z,151.89
2023-05-22T08:29:04.496Z,151.99
2023-05-22T08:30:04.525Z,144.35
2023-05-22T08:31:05.498Z,142.76
2023-05-22T08:32:04.558Z,129.22
2023-05-22T08:33:05.503Z,128.96
2023-05-22T08:34:05.463Z,127.71
2023-05-22T08:35:05.457Z,122.87
2023-05-22T08:36:05.441Z,117.49
2023-05-22T08:37:05.458Z,120.43
2023-05-22T08:38:05.434Z,117.17
2023-05-22T08:39:05.443Z,116.17
2023-05-22T08:40:05.571Z,100.00
2023-05-22T08:41:05.510Z,66.74
2023-05-22T08:42:04.503Z,78.21
2023-05-22T08:43:04.729Z,69.69
2023-05-22T08:44:05.739Z,54.87
2023-05-22T08:45:05.647Z,58.35
2023-05-22T08:46:05.669Z,26.45
2023-05-22T08:47:05.761Z,15.40
2023-05-22T08:48:05.881Z,30.06
2023-05-22T08:49:04.763Z,25.39
2023-05-22T08:50:05.743Z,26.38
2023-05-22T08:51:04.798Z,27.07
2023-05-22T08:52:04.777Z,25.00
2023-05-22T08:53:05.817Z,27.11
2023-05-22T08:54:05.873Z,45.43
2023-05-22T08:55:05.874Z,69.84
2023-05-22T08:56:05.851Z,73.88
2023-05-22T08:57:04.832Z,93.83
2023-05-22T08:58:05.244Z,100.50
2023-05-22T08:59:05.877Z,117.85
2023-05-22T09:00:05.904Z,121.51
2023-05-22T09:01:05.976Z,114.94
2023-05-22T09:02:06.680Z,96.23
2023-05-22T09:03:05.064Z,90.29
2023-05-22T09:04:06.158Z,89.84
2023-05-22T09:05:05.400Z,101.66
2023-05-22T09:06:06.136Z,100.39
2023-05-22T09:07:06.225Z,97.28
2023-05-22T09:08:16.066Z,98.39
2023-05-22T09:09:06.241Z,98.43
2023-05-22T09:10:06.220Z,95.07
2023-05-22T09:11:05.209Z,101.07
2023-05-22T09:12:06.231Z,104.41
2023-05-22T09:13:06.182Z,112.51
2023-05-22T09:14:06.193Z,109.40
2023-05-22T09:15:06.171Z,106.97
2023-05-22T09:16:06.189Z,109.53
2023-05-22T09:17:05.220Z,109.76
2023-05-22T09:18:06.203Z,108.58
2023-05-22T09:19:06.207Z,107.60
2023-05-22T09:20:06.168Z,106.61
2023-05-22T09:21:11.343Z,96.99
2023-05-22T09:22:06.133Z,91.44
2023-05-22T09:23:06.127Z,83.80
2023-05-22T09:24:06.118Z,73.09
2023-05-22T09:25:06.121Z,31.21
2023-05-22T09:26:06.098Z,25.51
2023-05-22T09:27:05.143Z,25.19
2023-05-22T09:28:05.195Z,10.34
2023-05-22T09:29:05.135Z,0.00
2023-05-22T09:30:06.075Z,14.78
2023-05-22T09:31:06.103Z,28.02
2023-05-22T09:32:05.064Z,22.92
2023-05-22T09:33:06.136Z,25.84
2023-05-22T09:34:06.040Z,27.32
2023-05-22T09:35:06.044Z,25.13
2023-05-22T09:36:06.024Z,19.93
2023-05-22T09:37:06.057Z,41.11
2023-05-22T09:38:06.043Z,37.54
2023-05-22T09:39:06.026Z,32.21
2023-05-22T09:40:06.028Z,41.70
2023-05-22T09:41:06.058Z,41.13
2023-05-22T09:42:05.989Z,29.29
2023-05-22T09:43:06.011Z,24.95
2023-05-22T09:44:05.979Z,35.71
2023-05-22T09:45:06.008Z,38.38
2023-05-22T09:46:06.040Z,47.07
2023-05-22T09:47:05.989Z,64.23
2023-05-22T09:48:06.333Z,85.38
2023-05-22T09:49:05.975Z,65.51
2023-05-22T09:50:05.940Z,38.41
2023-05-22T09:51:04.940Z,40.18
2023-05-22T09:52:04.935Z,49.49
2023-05-22T09:53:05.320Z,55.26
2023-05-22T09:54:05.917Z,58.01
2023-05-22T09:55:04.912Z,51.74
2023-05-22T09:56:05.914Z,34.67
2023-05-22T09:57:05.944Z,34.65
2023-05-22T09:58:05.995Z,25.43
2023-05-22T09:59:06.142Z,20.15
2023-05-22T10:00:05.079Z,19.92
2023-05-22T10:01:05.129Z,33.58
2023-05-22T10:02:06.222Z,42.22
2023-05-22T10:03:05.351Z,41.37
2023-05-22T10:04:06.353Z,44.61
2023-05-22T10:05:05.290Z,38.75
2023-05-22T10:06:05.355Z,50.53
2023-05-22T10:07:06.376Z,26.72
2023-05-22T10:08:05.486Z,28.31
2023-05-22T10:09:06.553Z,27.58
2023-05-22T10:10:06.485Z,21.48
2023-05-22T10:11:05.584Z,41.71
2023-05-22T10:12:05.549Z,49.60
2023-05-22T10:13:05.615Z,41.73
2023-05-22T10:14:05.641Z,48.44
2023-05-22T10:15:06.687Z,37.05
2023-05-22T10:16:05.737Z,43.11
2023-05-22T10:17:06.817Z,43.65
2023-05-22T10:18:06.849Z,50.43
2023-05-22T10:19:06.950Z,84.36
2023-05-22T10:20:06.915Z,109.75
2023-05-22T10:21:06.930Z,117.17
2023-05-22T10:22:06.999Z,117.00
2023-05-22T10:23:06.018Z,119.55
2023-05-22T10:24:07.096Z,116.88
2023-05-22T10:25:09.821Z,107.58
2023-05-22T10:26:07.092Z,107.73
2023-05-22T10:27:07.106Z,109.88
2023-05-22T10:28:07.093Z,117.03
2023-05-22T10:29:07.086Z,124.15
2023-05-22T10:30:07.103Z,121.02
2023-05-22T10:31:07.076Z,121.71
2023-05-22T10:32:06.067Z,92.81
2023-05-22T10:33:06.157Z,87.70
2023-05-22T10:34:07.075Z,103.40
2023-05-22T10:35:07.025Z,108.03
2023-05-22T10:36:07.025Z,103.71
2023-05-22T10:37:16.456Z,107.61
2023-05-22T10:38:07.041Z,107.81
2023-05-22T10:39:07.018Z,109.51
2023-05-22T10:40:07.033Z,109.47
2023-05-22T10:41:07.945Z,94.39
2023-05-22T10:42:06.045Z,103.31
2023-05-22T10:43:07.306Z,100.70
2023-05-22T10:44:05.965Z,81.17
2023-05-22T10:45:06.985Z,97.65
2023-05-22T10:46:07.127Z,70.40
2023-05-22T10:47:06.987Z,65.78
2023-05-22T10:48:07.349Z,70.02
2023-05-22T10:49:06.937Z,66.08
2023-05-22T10:50:06.950Z,56.16
2023-05-22T10:51:05.945Z,52.39
2023-05-22T10:52:05.929Z,51.93
2023-05-22T10:53:06.957Z,66.14
2023-05-22T10:54:05.952Z,63.97
2023-05-22T10:55:06.910Z,52.28
2023-05-22T10:56:06.892Z,43.67
2023-05-22T10:57:07.004Z,31.83
2023-05-22T10:58:06.893Z,57.89
2023-05-22T10:59:06.879Z,58.50
2023-05-22T11:00:06.899Z,51.60
2023-05-22T11:01:05.902Z,48.84
2023-05-22T11:02:07.411Z,52.51
2023-05-22T11:03:17.875Z,52.92
2023-05-22T11:04:07.084Z,41.56
2023-05-22T11:05:07.117Z,52.98
2023-05-22T11:06:05.985Z,56.53
2023-05-22T11:07:05.964Z,69.48
2023-05-22T11:08:06.980Z,76.88
2023-05-22T11:09:06.953Z,86.10
2023-05-22T11:10:06.979Z,86.65
2023-05-22T11:11:06.962Z,94.20
2023-05-22T11:12:05.961Z,94.07
2023-05-22T11:13:06.094Z,88.67
2023-05-22T11:14:05.928Z,91.49
2023-05-22T11:15:05.958Z,85.28
2023-05-22T11:16:06.907Z,92.41
2023-05-22T11:17:07.061Z,96.58
2023-05-22T11:18:06.999Z,103.38
2023-05-22T11:19:21.965Z,69.06
2023-05-22T11:20:07.239Z,30.59
2023-05-22T11:21:06.884Z,26.89
2023-05-22T11:22:05.896Z,49.47
2023-05-22T11:23:05.900Z,72.18
2023-05-22T11:24:06.856Z,86.25
2023-05-22T11:25:05.851Z,95.18
2023-05-22T11:26:06.859Z,90.12
2023-05-22T11:27:06.872Z,82.21
2023-05-22T11:28:06.861Z,94.97
2023-05-22T11:29:05.967Z,92.17
2023-05-22T11:30:06.815Z,80.56
2023-05-22T11:31:06.843Z,48.22
2023-05-22T11:32:06.828Z,38.91
2023-05-22T11:33:06.972Z,45.11
2023-05-22T11:34:06.801Z,44.33
2023-05-22T11:35:05.807Z,47.25
2023-05-22T11:36:06.773Z,50.09
2023-05-22T11:37:06.779Z,57.22
2023-05-22T11:38:06.777Z,75.04
2023-05-22T11:39:06.764Z,79.18
2023-05-22T11:40:06.762Z,82.59
2023-05-22T11:41:05.758Z,94.85
2023-05-22T11:42:06.728Z,98.93
2023-05-22T11:43:06.742Z,105.60
2023-05-22T11:44:06.729Z,108.62
2023-05-22T11:45:06.844Z,118.12
2023-05-22T11:46:06.755Z,121.41
2023-05-22T11:47:06.696Z,125.10
2023-05-22T11:48:05.806Z,132.26
2023-05-22T11:49:05.717Z,136.11
2023-05-22T11:50:05.731Z,135.33
2023-05-22T11:51:06.736Z,140.01
2023-05-22T11:52:05.742Z,140.76
2023-05-22T11:53:05.763Z,146.25
2023-05-22T11:54:06.777Z,150.97
2023-05-22T11:55:06.783Z,150.99
2023-05-22T11:56:06.890Z,155.52
2023-05-22T11:57:05.811Z,158.81
2023-05-22T11:58:06.829Z,161.09
2023-05-22T11:59:06.847Z,165.07
2023-05-22T12:00:06.919Z,166.25
2023-05-22T12:01:05.980Z,166.76
2023-05-22T12:02:06.898Z,170.08
2023-05-22T12:03:06.986Z,172.14
2023-05-22T12:04:06.206Z,174.51
2023-05-22T12:05:06.990Z,176.55
2023-05-22T12:06:06.003Z,177.46
2023-05-22T12:07:07.006Z,179.19
2023-05-22T12:08:07.017Z,179.73
2023-05-22T12:09:07.082Z,181.12
2023-05-22T12:10:07.152Z,182.38
2023-05-22T12:11:06.138Z,186.34
2023-05-22T12:12:07.176Z,187.22
2023-05-22T12:13:06.196Z,184.82
2023-05-22T12:14:06.307Z,187.46
2023-05-22T12:15:06.335Z,189.91
2023-05-22T12:16:07.378Z,191.89
2023-05-22T12:17:07.533Z,192.90
2023-05-22T12:18:07.518Z,193.26
2023-05-22T12:19:06.567Z,193.74
2023-05-22T12:20:06.551Z,193.73
2023-05-22T12:21:07.631Z,194.66
2023-05-22T12:22:07.671Z,194.69
2023-05-22T12:23:06.753Z,196.20
2023-05-22T12:24:07.717Z,198.48
2023-05-22T12:25:07.767Z,198.34
2023-05-22T12:26:07.782Z,198.90
2023-05-22T12:27:06.783Z,199.08
2023-05-22T12:28:06.899Z,199.79
2023-05-22T12:29:06.819Z,201.66
2023-05-22T12:30:06.866Z,201.00
2023-05-22T12:31:06.847Z,199.74
2023-05-22T12:32:07.959Z,200.27
2023-05-22T12:33:08.068Z,199.90
2023-05-22T12:34:07.987Z,202.57
2023-05-22T12:35:08.011Z,200.68
2023-05-22T12:36:07.055Z,200.45
2023-05-22T12:37:08.056Z,204.00
2023-05-22T12:38:08.062Z,203.65
2023-05-22T12:39:08.113Z,201.52
2023-05-22T12:40:07.134Z,207.11
2023-05-22T12:41:08.198Z,202.34
2023-05-22T12:42:07.220Z,201.88
2023-05-22T12:43:08.270Z,204.75
2023-05-22T12:44:08.321Z,203.96
2023-05-22T12:45:08.302Z,206.54
2023-05-22T12:46:08.323Z,206.05
2023-05-22T12:47:07.328Z,206.21
2023-05-22T12:48:07.433Z,206.15